sensor_id;sensor_type;location;lat;lon;timestamp;P1;durP1;ratioP1;P2;durP2;ratioP2
12181;SDS011;6154;51.550;12.138;2023-05-07T00:01:46;7.95;;;4.40;;
12181;SDS011;6154;51.550;12.138;2023-05-07T00:04:14;7.25;;;4.43;;
12181;SDS011;6154;51.550;12.138;2023-05-07T00:06:43;5.95;;;4.40;;
12181;SDS011;6154;51.550;12.138;2023-05-07T00:09:11;6.12;;;4.28;;
12181;SDS011;6154;51.550;12.138;2023-05-07T00:11:40;7.30;;;5.25;;
12181;SDS011;6154;51.550;12.138;2023-05-07T00:14:09;6.95;;;4.82;;
12181;SDS011;6154;51.550;12.138;2023-05-07T00:16:36;7.95;;;4.35;;
12181;SDS011;6154;51.550;12.138;2023-05-07T00:19:05;6.30;;;3.75;;
12181;SDS011;6154;51.550;12.138;2023-05-07T00:21:33;7.72;;;4.40;;
12181;SDS011;6154;51.550;12.138;2023-05-07T00:24:01;6.05;;;4.10;;
12181;SDS011;6154;51.550;12.138;2023-05-07T00:26:32;7.07;;;4.93;;
12181;SDS011;6154;51.550;12.138;2023-05-07T00:29:02;7.03;;;4.53;;
12181;SDS011;6154;51.550;12.138;2023-05-07T00:31:30;5.55;;;3.75;;
12181;SDS011;6154;51.550;12.138;2023-05-07T00:33:58;6.05;;;3.85;;
12181;SDS011;6154;51.550;12.138;2023-05-07T00:36:26;6.30;;;4.25;;
12181;SDS011;6154;51.550;12.138;2023-05-07T00:38:56;6.22;;;4.43;;
12181;SDS011;6154;51.550;12.138;2023-05-07T00:41:26;6.90;;;4.30;;
12181;SDS011;6154;51.550;12.138;2023-05-07T00:43:55;7.80;;;4.62;;
12181;SDS011;6154;51.550;12.138;2023-05-07T00:46:24;7.03;;;4.60;;
12181;SDS011;6154;51.550;12.138;2023-05-07T00:48:53;7.35;;;5.03;;
12181;SDS011;6154;51.550;12.138;2023-05-07T00:51:23;6.68;;;4.30;;
12181;SDS011;6154;51.550;12.138;2023-05-07T00:53:53;8.38;;;4.97;;
12181;SDS011;6154;51.550;12.138;2023-05-07T00:56:22;8.10;;;4.80;;
12181;SDS011;6154;51.550;12.138;2023-05-07T00:58:51;7.35;;;4.50;;
12181;SDS011;6154;51.550;12.138;2023-05-07T01:01:19;6.57;;;4.90;;
12181;SDS011;6154;51.550;12.138;2023-05-07T01:03:49;6.68;;;4.35;;
12181;SDS011;6154;51.550;12.138;2023-05-07T01:06:18;8.57;;;4.78;;
12181;SDS011;6154;51.550;12.138;2023-05-07T01:08:48;9.02;;;4.87;;
12181;SDS011;6154;51.550;12.138;2023-05-07T01:11:19;8.40;;;4.03;;
12181;SDS011;6154;51.550;12.138;2023-05-07T01:13:48;5.72;;;4.30;;
12181;SDS011;6154;51.550;12.138;2023-05-07T01:16:18;5.60;;;4.10;;
12181;SDS011;6154;51.550;12.138;2023-05-07T01:18:47;5.20;;;4.18;;
12181;SDS011;6154;51.550;12.138;2023-05-07T01:21:17;6.60;;;4.47;;
12181;SDS011;6154;51.550;12.138;2023-05-07T01:23:49;6.32;;;4.15;;
12181;SDS011;6154;51.550;12.138;2023-05-07T01:26:17;6.15;;;4.37;;
12181;SDS011;6154;51.550;12.138;2023-05-07T01:28:46;6.43;;;4.50;;
12181;SDS011;6154;51.550;12.138;2023-05-07T01:31:14;5.43;;;3.72;;
12181;SDS011;6154;51.550;12.138;2023-05-07T01:33:44;6.80;;;4.68;;
12181;SDS011;6154;51.550;12.138;2023-05-07T01:36:15;6.90;;;4.57;;
12181;SDS011;6154;51.550;12.138;2023-05-07T01:38:46;5.60;;;3.72;;
12181;SDS011;6154;51.550;12.138;2023-05-07T01:41:16;4.75;;;3.87;;
12181;SDS011;6154;51.550;12.138;2023-05-07T01:43:45;5.10;;;3.60;;
12181;SDS011;6154;51.550;12.138;2023-05-07T01:46:14;5.20;;;3.55;;
12181;SDS011;6154;51.550;12.138;2023-05-07T01:48:43;6.22;;;4.07;;
12181;SDS011;6154;51.550;12.138;2023-05-07T01:51:12;5.30;;;3.65;;
12181;SDS011;6154;51.550;12.138;2023-05-07T01:53:41;5.35;;;4.05;;
12181;SDS011;6154;51.550;12.138;2023-05-07T01:56:11;5.65;;;3.97;;
12181;SDS011;6154;51.550;12.138;2023-05-07T01:58:40;5.35;;;4.00;;
12181;SDS011;6154;51.550;12.138;2023-05-07T02:01:08;4.43;;;3.33;;
12181;SDS011;6154;51.550;12.138;2023-05-07T02:03:37;5.68;;;3.92;;
12181;SDS011;6154;51.550;12.138;2023-05-07T02:06:06;4.78;;;4.12;;
12181;SDS011;6154;51.550;12.138;2023-05-07T02:08:34;7.50;;;3.92;;
12181;SDS011;6154;51.550;12.138;2023-05-07T02:11:03;6.57;;;3.65;;
12181;SDS011;6154;51.550;12.138;2023-05-07T02:13:33;4.95;;;3.53;;
12181;SDS011;6154;51.550;12.138;2023-05-07T02:16:02;4.97;;;3.47;;
12181;SDS011;6154;51.550;12.138;2023-05-07T02:18:32;5.80;;;3.33;;
12181;SDS011;6154;51.550;12.138;2023-05-07T02:21:02;6.50;;;4.20;;
12181;SDS011;6154;51.550;12.138;2023-05-07T02:23:30;6.30;;;4.72;;
12181;SDS011;6154;51.550;12.138;2023-05-07T02:26:03;4.18;;;3.53;;
12181;SDS011;6154;51.550;12.138;2023-05-07T02:28:33;6.97;;;4.45;;
12181;SDS011;6154;51.550;12.138;2023-05-07T02:31:02;5.60;;;4.57;;
12181;SDS011;6154;51.550;12.138;2023-05-07T02:33:31;6.07;;;4.37;;
12181;SDS011;6154;51.550;12.138;2023-05-07T02:36:05;6.35;;;4.22;;
12181;SDS011;6154;51.550;12.138;2023-05-07T02:38:35;5.78;;;4.57;;
12181;SDS011;6154;51.550;12.138;2023-05-07T02:41:05;6.68;;;4.90;;
12181;SDS011;6154;51.550;12.138;2023-05-07T02:43:35;6.55;;;5.50;;
12181;SDS011;6154;51.550;12.138;2023-05-07T02:46:04;9.07;;;5.25;;
12181;SDS011;6154;51.550;12.138;2023-05-07T02:48:34;12.15;;;6.00;;
12181;SDS011;6154;51.550;12.138;2023-05-07T02:51:03;9.30;;;5.78;;
12181;SDS011;6154;51.550;12.138;2023-05-07T02:53:32;7.40;;;5.37;;
12181;SDS011;6154;51.550;12.138;2023-05-07T02:56:01;7.32;;;6.12;;
12181;SDS011;6154;51.550;12.138;2023-05-07T02:58:29;8.68;;;6.03;;
12181;SDS011;6154;51.550;12.138;2023-05-07T03:00:59;10.63;;;5.78;;
12181;SDS011;6154;51.550;12.138;2023-05-07T03:03:28;7.43;;;5.80;;
12181;SDS011;6154;51.550;12.138;2023-05-07T03:05:56;8.93;;;5.95;;
12181;SDS011;6154;51.550;12.138;2023-05-07T03:08:24;7.78;;;5.55;;
12181;SDS011;6154;51.550;12.138;2023-05-07T03:10:53;8.52;;;5.80;;
12181;SDS011;6154;51.550;12.138;2023-05-07T03:13:21;8.13;;;5.65;;
12181;SDS011;6154;51.550;12.138;2023-05-07T03:15:49;7.40;;;5.70;;
12181;SDS011;6154;51.550;12.138;2023-05-07T03:18:19;8.07;;;5.82;;
12181;SDS011;6154;51.550;12.138;2023-05-07T03:20:48;7.68;;;5.15;;
12181;SDS011;6154;51.550;12.138;2023-05-07T03:23:16;9.68;;;5.95;;
12181;SDS011;6154;51.550;12.138;2023-05-07T03:25:45;7.43;;;5.68;;
12181;SDS011;6154;51.550;12.138;2023-05-07T03:28:13;10.00;;;6.40;;
12181;SDS011;6154;51.550;12.138;2023-05-07T03:30:41;8.68;;;6.12;;
12181;SDS011;6154;51.550;12.138;2023-05-07T03:33:09;8.05;;;6.40;;
12181;SDS011;6154;51.550;12.138;2023-05-07T03:35:39;9.00;;;6.62;;
12181;SDS011;6154;51.550;12.138;2023-05-07T03:38:08;10.73;;;6.65;;
12181;SDS011;6154;51.550;12.138;2023-05-07T03:40:37;8.77;;;5.78;;
12181;SDS011;6154;51.550;12.138;2023-05-07T03:43:05;9.85;;;6.32;;
12181;SDS011;6154;51.550;12.138;2023-05-07T03:45:34;9.25;;;6.00;;
12181;SDS011;6154;51.550;12.138;2023-05-07T03:48:04;7.90;;;6.05;;
12181;SDS011;6154;51.550;12.138;2023-05-07T03:50:32;8.70;;;5.87;;
12181;SDS011;6154;51.550;12.138;2023-05-07T03:53:02;7.28;;;5.65;;
12181;SDS011;6154;51.550;12.138;2023-05-07T03:55:30;9.02;;;6.00;;
12181;SDS011;6154;51.550;12.138;2023-05-07T03:57:59;9.80;;;6.10;;
12181;SDS011;6154;51.550;12.138;2023-05-07T04:00:27;8.38;;;6.85;;
12181;SDS011;6154;51.550;12.138;2023-05-07T04:02:57;9.15;;;6.00;;
12181;SDS011;6154;51.550;12.138;2023-05-07T04:05:26;10.52;;;6.95;;
12181;SDS011;6154;51.550;12.138;2023-05-07T04:07:54;8.98;;;6.10;;
12181;SDS011;6154;51.550;12.138;2023-05-07T04:10:25;9.25;;;6.60;;
12181;SDS011;6154;51.550;12.138;2023-05-07T04:12:55;7.97;;;6.18;;
12181;SDS011;6154;51.550;12.138;2023-05-07T04:15:24;8.50;;;6.10;;
12181;SDS011;6154;51.550;12.138;2023-05-07T04:17:52;7.93;;;6.30;;
12181;SDS011;6154;51.550;12.138;2023-05-07T04:20:21;12.57;;;6.68;;
12181;SDS011;6154;51.550;12.138;2023-05-07T04:22:50;9.35;;;6.62;;
12181;SDS011;6154;51.550;12.138;2023-05-07T04:25:18;8.80;;;6.43;;
12181;SDS011;6154;51.550;12.138;2023-05-07T04:27:48;10.52;;;6.97;;
12181;SDS011;6154;51.550;12.138;2023-05-07T04:30:18;9.95;;;6.53;;
12181;SDS011;6154;51.550;12.138;2023-05-07T04:32:46;8.55;;;6.55;;
12181;SDS011;6154;51.550;12.138;2023-05-07T04:35:15;11.40;;;7.00;;
12181;SDS011;6154;51.550;12.138;2023-05-07T04:37:44;9.45;;;6.47;;
12181;SDS011;6154;51.550;12.138;2023-05-07T04:40:13;13.70;;;7.50;;
12181;SDS011;6154;51.550;12.138;2023-05-07T04:42:41;10.60;;;6.35;;
12181;SDS011;6154;51.550;12.138;2023-05-07T04:45:11;10.00;;;6.78;;
12181;SDS011;6154;51.550;12.138;2023-05-07T04:47:40;11.60;;;6.70;;
12181;SDS011;6154;51.550;12.138;2023-05-07T04:50:09;10.52;;;6.32;;
12181;SDS011;6154;51.550;12.138;2023-05-07T04:52:38;8.73;;;5.82;;
12181;SDS011;6154;51.550;12.138;2023-05-07T04:55:07;8.68;;;6.10;;
12181;SDS011;6154;51.550;12.138;2023-05-07T04:57:36;10.23;;;5.87;;
12181;SDS011;6154;51.550;12.138;2023-05-07T05:00:07;7.50;;;5.78;;
12181;SDS011;6154;51.550;12.138;2023-05-07T05:02:40;8.75;;;5.65;;
12181;SDS011;6154;51.550;12.138;2023-05-07T05:05:09;8.93;;;5.50;;
12181;SDS011;6154;51.550;12.138;2023-05-07T05:07:37;7.82;;;5.25;;
12181;SDS011;6154;51.550;12.138;2023-05-07T05:10:07;8.57;;;6.03;;
12181;SDS011;6154;51.550;12.138;2023-05-07T05:12:36;6.62;;;5.15;;
12181;SDS011;6154;51.550;12.138;2023-05-07T05:15:05;8.38;;;5.25;;
12181;SDS011;6154;51.550;12.138;2023-05-07T05:17:34;7.53;;;5.12;;
12181;SDS011;6154;51.550;12.138;2023-05-07T05:20:06;8.43;;;5.32;;
12181;SDS011;6154;51.550;12.138;2023-05-07T05:22:46;7.18;;;5.50;;
12181;SDS011;6154;51.550;12.138;2023-05-07T05:25:15;7.00;;;5.30;;
12181;SDS011;6154;51.550;12.138;2023-05-07T05:27:43;8.50;;;5.30;;
12181;SDS011;6154;51.550;12.138;2023-05-07T05:30:11;8.13;;;5.00;;
12181;SDS011;6154;51.550;12.138;2023-05-07T05:32:42;8.15;;;5.03;;
12181;SDS011;6154;51.550;12.138;2023-05-07T05:35:11;7.15;;;5.50;;
12181;SDS011;6154;51.550;12.138;2023-05-07T05:37:41;8.73;;;5.05;;
12181;SDS011;6154;51.550;12.138;2023-05-07T05:40:09;7.30;;;4.62;;
12181;SDS011;6154;51.550;12.138;2023-05-07T05:42:38;9.27;;;5.07;;
12181;SDS011;6154;51.550;12.138;2023-05-07T05:45:08;7.85;;;4.15;;
12181;SDS011;6154;51.550;12.138;2023-05-07T05:47:37;5.53;;;4.57;;
12181;SDS011;6154;51.550;12.138;2023-05-07T05:50:08;6.20;;;3.90;;
12181;SDS011;6154;51.550;12.138;2023-05-07T05:52:38;5.87;;;3.95;;
12181;SDS011;6154;51.550;12.138;2023-05-07T05:55:08;5.78;;;4.03;;
12181;SDS011;6154;51.550;12.138;2023-05-07T05:57:36;4.65;;;4.07;;
12181;SDS011;6154;51.550;12.138;2023-05-07T06:00:06;5.68;;;3.90;;
12181;SDS011;6154;51.550;12.138;2023-05-07T06:02:44;6.53;;;4.35;;
12181;SDS011;6154;51.550;12.138;2023-05-07T06:05:13;4.57;;;3.67;;
12181;SDS011;6154;51.550;12.138;2023-05-07T06:07:43;5.40;;;3.78;;
12181;SDS011;6154;51.550;12.138;2023-05-07T06:10:11;4.25;;;3.60;;
12181;SDS011;6154;51.550;12.138;2023-05-07T06:12:40;7.20;;;3.80;;
12181;SDS011;6154;51.550;12.138;2023-05-07T06:15:10;5.10;;;3.53;;
12181;SDS011;6154;51.550;12.138;2023-05-07T06:17:39;4.28;;;3.55;;
12181;SDS011;6154;51.550;12.138;2023-05-07T06:20:08;6.32;;;3.97;;
12181;SDS011;6154;51.550;12.138;2023-05-07T06:22:37;3.62;;;3.20;;
12181;SDS011;6154;51.550;12.138;2023-05-07T06:25:09;5.57;;;3.75;;
12181;SDS011;6154;51.550;12.138;2023-05-07T06:27:38;5.28;;;3.70;;
12181;SDS011;6154;51.550;12.138;2023-05-07T06:30:07;4.55;;;3.95;;
12181;SDS011;6154;51.550;12.138;2023-05-07T06:32:37;4.12;;;3.72;;
12181;SDS011;6154;51.550;12.138;2023-05-07T06:35:05;5.35;;;3.72;;
12181;SDS011;6154;51.550;12.138;2023-05-07T06:37:34;4.75;;;3.53;;
12181;SDS011;6154;51.550;12.138;2023-05-07T06:40:05;5.03;;;3.42;;
12181;SDS011;6154;51.550;12.138;2023-05-07T06:42:36;4.20;;;3.40;;
12181;SDS011;6154;51.550;12.138;2023-05-07T06:45:15;3.62;;;3.03;;
12181;SDS011;6154;51.550;12.138;2023-05-07T06:47:48;4.87;;;2.95;;
12181;SDS011;6154;51.550;12.138;2023-05-07T06:50:17;5.70;;;3.58;;
12181;SDS011;6154;51.550;12.138;2023-05-07T06:52:46;6.43;;;3.80;;
12181;SDS011;6154;51.550;12.138;2023-05-07T06:55:19;3.60;;;2.70;;
12181;SDS011;6154;51.550;12.138;2023-05-07T06:57:50;4.62;;;3.22;;
12181;SDS011;6154;51.550;12.138;2023-05-07T07:00:18;5.68;;;3.62;;
12181;SDS011;6154;51.550;12.138;2023-05-07T07:02:49;4.10;;;3.20;;
12181;SDS011;6154;51.550;12.138;2023-05-07T07:05:18;3.83;;;3.00;;
12181;SDS011;6154;51.550;12.138;2023-05-07T07:07:46;5.68;;;3.65;;
12181;SDS011;6154;51.550;12.138;2023-05-07T07:10:21;4.18;;;2.67;;
12181;SDS011;6154;51.550;12.138;2023-05-07T07:12:52;4.78;;;3.17;;
12181;SDS011;6154;51.550;12.138;2023-05-07T07:15:21;3.33;;;2.90;;
12181;SDS011;6154;51.550;12.138;2023-05-07T07:17:52;5.70;;;3.78;;
12181;SDS011;6154;51.550;12.138;2023-05-07T07:20:21;4.87;;;3.70;;
12181;SDS011;6154;51.550;12.138;2023-05-07T07:22:49;4.87;;;3.50;;
12181;SDS011;6154;51.550;12.138;2023-05-07T07:25:18;5.37;;;3.58;;
12181;SDS011;6154;51.550;12.138;2023-05-07T07:27:47;4.22;;;3.37;;
12181;SDS011;6154;51.550;12.138;2023-05-07T07:30:17;4.43;;;3.42;;
12181;SDS011;6154;51.550;12.138;2023-05-07T07:32:46;3.67;;;3.20;;
12181;SDS011;6154;51.550;12.138;2023-05-07T07:35:14;3.40;;;2.92;;
12181;SDS011;6154;51.550;12.138;2023-05-07T07:37:46;3.35;;;2.70;;
12181;SDS011;6154;51.550;12.138;2023-05-07T07:40:17;4.70;;;3.00;;
12181;SDS011;6154;51.550;12.138;2023-05-07T07:42:45;4.12;;;3.05;;
12181;SDS011;6154;51.550;12.138;2023-05-07T07:45:13;2.95;;;2.65;;
12181;SDS011;6154;51.550;12.138;2023-05-07T07:47:43;3.53;;;2.87;;
12181;SDS011;6154;51.550;12.138;2023-05-07T07:50:12;3.10;;;2.80;;
12181;SDS011;6154;51.550;12.138;2023-05-07T07:52:51;2.87;;;2.67;;
12181;SDS011;6154;51.550;12.138;2023-05-07T07:55:20;7.15;;;3.05;;
12181;SDS011;6154;51.550;12.138;2023-05-07T07:57:50;2.95;;;2.30;;
12181;SDS011;6154;51.550;12.138;2023-05-07T08:00:19;3.60;;;2.70;;
12181;SDS011;6154;51.550;12.138;2023-05-07T08:02:53;3.80;;;2.67;;
12181;SDS011;6154;51.550;12.138;2023-05-07T08:05:26;3.65;;;3.25;;
12181;SDS011;6154;51.550;12.138;2023-05-07T08:07:58;2.72;;;2.45;;
12181;SDS011;6154;51.550;12.138;2023-05-07T08:10:27;4.55;;;2.80;;
12181;SDS011;6154;51.550;12.138;2023-05-07T08:12:55;3.75;;;2.50;;
12181;SDS011;6154;51.550;12.138;2023-05-07T08:15:24;3.78;;;2.42;;
12181;SDS011;6154;51.550;12.138;2023-05-07T08:17:54;3.10;;;2.80;;
12181;SDS011;6154;51.550;12.138;2023-05-07T08:20:24;2.60;;;2.37;;
12181;SDS011;6154;51.550;12.138;2023-05-07T08:22:53;2.42;;;2.22;;
12181;SDS011;6154;51.550;12.138;2023-05-07T08:25:23;2.95;;;2.60;;
12181;SDS011;6154;51.550;12.138;2023-05-07T08:27:52;3.17;;;2.47;;
12181;SDS011;6154;51.550;12.138;2023-05-07T08:30:22;4.15;;;2.87;;
12181;SDS011;6154;51.550;12.138;2023-05-07T08:32:51;4.07;;;3.00;;
12181;SDS011;6154;51.550;12.138;2023-05-07T08:35:21;4.57;;;3.15;;
12181;SDS011;6154;51.550;12.138;2023-05-07T08:37:50;3.42;;;3.12;;
12181;SDS011;6154;51.550;12.138;2023-05-07T08:40:18;2.90;;;2.70;;
12181;SDS011;6154;51.550;12.138;2023-05-07T08:42:48;3.40;;;3.00;;
12181;SDS011;6154;51.550;12.138;2023-05-07T08:45:17;3.97;;;3.00;;
12181;SDS011;6154;51.550;12.138;2023-05-07T08:47:50;3.92;;;3.15;;
12181;SDS011;6154;51.550;12.138;2023-05-07T08:50:22;3.80;;;3.42;;
12181;SDS011;6154;51.550;12.138;2023-05-07T08:52:51;3.40;;;3.10;;
12181;SDS011;6154;51.550;12.138;2023-05-07T08:55:20;3.40;;;3.08;;
12181;SDS011;6154;51.550;12.138;2023-05-07T08:57:48;3.58;;;3.28;;
12181;SDS011;6154;51.550;12.138;2023-05-07T09:00:20;4.97;;;3.87;;
12181;SDS011;6154;51.550;12.138;2023-05-07T09:02:50;4.78;;;4.25;;
12181;SDS011;6154;51.550;12.138;2023-05-07T09:05:18;5.03;;;4.20;;
12181;SDS011;6154;51.550;12.138;2023-05-07T09:07:49;4.95;;;4.00;;
12181;SDS011;6154;51.550;12.138;2023-05-07T09:10:23;5.22;;;3.72;;
12181;SDS011;6154;51.550;12.138;2023-05-07T09:12:52;4.03;;;3.47;;
12181;SDS011;6154;51.550;12.138;2023-05-07T09:15:21;4.82;;;4.05;;
12181;SDS011;6154;51.550;12.138;2023-05-07T09:17:59;6.90;;;4.35;;
12181;SDS011;6154;51.550;12.138;2023-05-07T09:20:30;4.70;;;3.95;;
12181;SDS011;6154;51.550;12.138;2023-05-07T09:23:01;6.35;;;4.82;;
12181;SDS011;6154;51.550;12.138;2023-05-07T09:25:30;4.25;;;3.80;;
12181;SDS011;6154;51.550;12.138;2023-05-07T09:28:00;4.90;;;4.18;;
12181;SDS011;6154;51.550;12.138;2023-05-07T09:30:31;7.75;;;4.50;;
12181;SDS011;6154;51.550;12.138;2023-05-07T09:33:01;4.28;;;3.83;;
12181;SDS011;6154;51.550;12.138;2023-05-07T09:35:32;6.05;;;4.37;;
12181;SDS011;6154;51.550;12.138;2023-05-07T09:38:03;5.57;;;4.60;;
12181;SDS011;6154;51.550;12.138;2023-05-07T09:40:32;5.37;;;4.60;;
12181;SDS011;6154;51.550;12.138;2023-05-07T09:43:08;5.60;;;4.12;;
12181;SDS011;6154;51.550;12.138;2023-05-07T09:45:42;6.20;;;4.53;;
12181;SDS011;6154;51.550;12.138;2023-05-07T09:48:11;4.62;;;3.97;;
12181;SDS011;6154;51.550;12.138;2023-05-07T09:50:45;8.20;;;4.68;;
12181;SDS011;6154;51.550;12.138;2023-05-07T09:53:18;5.55;;;4.43;;
12181;SDS011;6154;51.550;12.138;2023-05-07T09:55:48;5.75;;;4.07;;
12181;SDS011;6154;51.550;12.138;2023-05-07T09:58:18;4.68;;;4.12;;
12181;SDS011;6154;51.550;12.138;2023-05-07T10:00:48;4.93;;;4.00;;
12181;SDS011;6154;51.550;12.138;2023-05-07T10:03:18;5.12;;;4.43;;
12181;SDS011;6154;51.550;12.138;2023-05-07T10:05:48;6.95;;;4.70;;
12181;SDS011;6154;51.550;12.138;2023-05-07T10:08:19;5.03;;;3.97;;
12181;SDS011;6154;51.550;12.138;2023-05-07T10:10:49;5.90;;;4.75;;
12181;SDS011;6154;51.550;12.138;2023-05-07T10:13:20;6.28;;;4.70;;
12181;SDS011;6154;51.550;12.138;2023-05-07T10:15:49;5.82;;;5.15;;
12181;SDS011;6154;51.550;12.138;2023-05-07T10:18:19;6.70;;;4.72;;
12181;SDS011;6154;51.550;12.138;2023-05-07T10:20:51;5.75;;;4.68;;
12181;SDS011;6154;51.550;12.138;2023-05-07T10:23:23;6.15;;;4.90;;
12181;SDS011;6154;51.550;12.138;2023-05-07T10:26:02;5.90;;;4.57;;
12181;SDS011;6154;51.550;12.138;2023-05-07T10:28:40;6.57;;;4.75;;
12181;SDS011;6154;51.550;12.138;2023-05-07T10:31:18;4.45;;;3.92;;
12181;SDS011;6154;51.550;12.138;2023-05-07T10:34:04;6.65;;;4.60;;
12181;SDS011;6154;51.550;12.138;2023-05-07T10:36:40;5.05;;;4.40;;
12181;SDS011;6154;51.550;12.138;2023-05-07T10:39:11;5.90;;;4.20;;
12181;SDS011;6154;51.550;12.138;2023-05-07T10:41:40;5.03;;;4.37;;
12181;SDS011;6154;51.550;12.138;2023-05-07T10:44:09;6.05;;;4.70;;
12181;SDS011;6154;51.550;12.138;2023-05-07T10:46:39;5.45;;;4.80;;
12181;SDS011;6154;51.550;12.138;2023-05-07T10:49:14;4.43;;;4.00;;
12181;SDS011;6154;51.550;12.138;2023-05-07T10:51:44;5.70;;;4.10;;
12181;SDS011;6154;51.550;12.138;2023-05-07T10:54:22;4.37;;;3.90;;
12181;SDS011;6154;51.550;12.138;2023-05-07T10:56:52;5.90;;;4.82;;
12181;SDS011;6154;51.550;12.138;2023-05-07T10:59:30;5.78;;;4.95;;
12181;SDS011;6154;51.550;12.138;2023-05-07T11:02:09;10.45;;;5.07;;
12181;SDS011;6154;51.550;12.138;2023-05-07T11:04:41;5.10;;;4.40;;
12181;SDS011;6154;51.550;12.138;2023-05-07T11:07:24;5.32;;;4.35;;
12181;SDS011;6154;51.550;12.138;2023-05-07T11:10:02;8.23;;;4.70;;
12181;SDS011;6154;51.550;12.138;2023-05-07T11:12:52;4.40;;;3.87;;
12181;SDS011;6154;51.550;12.138;2023-05-07T11:15:41;4.95;;;4.35;;
12181;SDS011;6154;51.550;12.138;2023-05-07T11:18:15;4.53;;;4.05;;
12181;SDS011;6154;51.550;12.138;2023-05-07T11:20:49;4.75;;;4.20;;
12181;SDS011;6154;51.550;12.138;2023-05-07T11:26:30;4.85;;;4.37;;
12181;SDS011;6154;51.550;12.138;2023-05-07T11:29:12;6.12;;;4.60;;
12181;SDS011;6154;51.550;12.138;2023-05-07T11:31:48;4.65;;;3.78;;
12181;SDS011;6154;51.550;12.138;2023-05-07T11:34:21;5.03;;;4.50;;
12181;SDS011;6154;51.550;12.138;2023-05-07T11:36:51;5.82;;;4.22;;
12181;SDS011;6154;51.550;12.138;2023-05-07T11:39:26;4.62;;;4.00;;
12181;SDS011;6154;51.550;12.138;2023-05-07T11:41:57;4.12;;;3.72;;
12181;SDS011;6154;51.550;12.138;2023-05-07T11:44:25;4.22;;;3.83;;
12181;SDS011;6154;51.550;12.138;2023-05-07T11:47:10;4.90;;;3.40;;
12181;SDS011;6154;51.550;12.138;2023-05-07T11:49:39;4.43;;;3.12;;
12181;SDS011;6154;51.550;12.138;2023-05-07T11:52:08;4.82;;;3.40;;
12181;SDS011;6154;51.550;12.138;2023-05-07T11:54:36;6.93;;;3.40;;
12181;SDS011;6154;51.550;12.138;2023-05-07T11:57:06;3.30;;;2.97;;
12181;SDS011;6154;51.550;12.138;2023-05-07T11:59:38;4.78;;;2.95;;
12181;SDS011;6154;51.550;12.138;2023-05-07T12:02:07;3.50;;;3.15;;
12181;SDS011;6154;51.550;12.138;2023-05-07T12:04:37;3.95;;;2.95;;
12181;SDS011;6154;51.550;12.138;2023-05-07T12:07:05;5.20;;;3.37;;
12181;SDS011;6154;51.550;12.138;2023-05-07T12:09:38;4.07;;;2.90;;
12181;SDS011;6154;51.550;12.138;2023-05-07T12:12:08;4.85;;;3.20;;
12181;SDS011;6154;51.550;12.138;2023-05-07T12:14:37;3.87;;;3.47;;
12181;SDS011;6154;51.550;12.138;2023-05-07T12:17:06;5.35;;;3.58;;
12181;SDS011;6154;51.550;12.138;2023-05-07T12:19:36;4.70;;;3.08;;
12181;SDS011;6154;51.550;12.138;2023-05-07T12:22:05;4.07;;;3.62;;
12181;SDS011;6154;51.550;12.138;2023-05-07T12:24:45;4.12;;;3.50;;
12181;SDS011;6154;51.550;12.138;2023-05-07T12:27:15;7.20;;;4.03;;
12181;SDS011;6154;51.550;12.138;2023-05-07T12:29:44;3.75;;;3.12;;
12181;SDS011;6154;51.550;12.138;2023-05-07T12:32:15;4.03;;;3.58;;
12181;SDS011;6154;51.550;12.138;2023-05-07T12:34:43;4.25;;;3.65;;
12181;SDS011;6154;51.550;12.138;2023-05-07T12:37:11;7.10;;;3.72;;
12181;SDS011;6154;51.550;12.138;2023-05-07T12:39:44;5.18;;;3.90;;
12181;SDS011;6154;51.550;12.138;2023-05-07T12:42:16;5.72;;;3.83;;
12181;SDS011;6154;51.550;12.138;2023-05-07T12:44:50;6.32;;;4.07;;
12181;SDS011;6154;51.550;12.138;2023-05-07T12:47:18;4.90;;;4.18;;
12181;SDS011;6154;51.550;12.138;2023-05-07T12:49:48;5.87;;;3.75;;
12181;SDS011;6154;51.550;12.138;2023-05-07T12:52:17;5.68;;;4.28;;
12181;SDS011;6154;51.550;12.138;2023-05-07T12:54:45;4.97;;;3.20;;
12181;SDS011;6154;51.550;12.138;2023-05-07T12:57:13;3.87;;;3.37;;
12181;SDS011;6154;51.550;12.138;2023-05-07T12:59:43;6.85;;;2.90;;
12181;SDS011;6154;51.550;12.138;2023-05-07T13:02:11;3.42;;;2.60;;
12181;SDS011;6154;51.550;12.138;2023-05-07T13:04:39;3.47;;;2.83;;
12181;SDS011;6154;51.550;12.138;2023-05-07T13:07:08;6.82;;;3.47;;
12181;SDS011;6154;51.550;12.138;2023-05-07T13:09:36;3.67;;;2.78;;
12181;SDS011;6154;51.550;12.138;2023-05-07T13:12:04;2.95;;;2.60;;
12181;SDS011;6154;51.550;12.138;2023-05-07T13:14:34;4.70;;;3.22;;
12181;SDS011;6154;51.550;12.138;2023-05-07T13:17:03;4.03;;;2.53;;
12181;SDS011;6154;51.550;12.138;2023-05-07T13:19:31;3.05;;;2.72;;
12181;SDS011;6154;51.550;12.138;2023-05-07T13:21:59;3.47;;;2.50;;
12181;SDS011;6154;51.550;12.138;2023-05-07T13:24:28;2.90;;;2.17;;
12181;SDS011;6154;51.550;12.138;2023-05-07T13:26:56;3.00;;;2.70;;
12181;SDS011;6154;51.550;12.138;2023-05-07T13:29:24;2.72;;;2.53;;
12181;SDS011;6154;51.550;12.138;2023-05-07T13:31:56;3.37;;;2.95;;
12181;SDS011;6154;51.550;12.138;2023-05-07T13:34:27;3.65;;;2.75;;
12181;SDS011;6154;51.550;12.138;2023-05-07T13:36:55;3.28;;;2.47;;
12181;SDS011;6154;51.550;12.138;2023-05-07T13:39:24;5.15;;;3.15;;
12181;SDS011;6154;51.550;12.138;2023-05-07T13:41:56;5.40;;;2.53;;
12181;SDS011;6154;51.550;12.138;2023-05-07T13:44:24;8.18;;;2.83;;
12181;SDS011;6154;51.550;12.138;2023-05-07T13:46:52;3.15;;;2.85;;
12181;SDS011;6154;51.550;12.138;2023-05-07T13:49:21;11.02;;;8.30;;
12181;SDS011;6154;51.550;12.138;2023-05-07T13:51:50;3.95;;;2.72;;
12181;SDS011;6154;51.550;12.138;2023-05-07T13:54:18;3.12;;;2.90;;
12181;SDS011;6154;51.550;12.138;2023-05-07T13:56:47;2.70;;;2.50;;
12181;SDS011;6154;51.550;12.138;2023-05-07T13:59:16;3.45;;;2.53;;
12181;SDS011;6154;51.550;12.138;2023-05-07T14:01:47;5.03;;;3.17;;
12181;SDS011;6154;51.550;12.138;2023-05-07T14:04:16;3.25;;;2.45;;
12181;SDS011;6154;51.550;12.138;2023-05-07T14:06:44;3.00;;;2.53;;
12181;SDS011;6154;51.550;12.138;2023-05-07T14:09:14;2.78;;;2.58;;
12181;SDS011;6154;51.550;12.138;2023-05-07T14:11:42;2.87;;;2.53;;
12181;SDS011;6154;51.550;12.138;2023-05-07T14:14:11;2.25;;;2.05;;
12181;SDS011;6154;51.550;12.138;2023-05-07T14:16:39;2.78;;;2.53;;
12181;SDS011;6154;51.550;12.138;2023-05-07T14:19:08;3.97;;;3.58;;
12181;SDS011;6154;51.550;12.138;2023-05-07T14:21:36;2.53;;;2.33;;
12181;SDS011;6154;51.550;12.138;2023-05-07T14:24:05;2.70;;;1.77;;
12181;SDS011;6154;51.550;12.138;2023-05-07T14:26:35;2.08;;;1.87;;
12181;SDS011;6154;51.550;12.138;2023-05-07T14:29:04;2.65;;;2.17;;
12181;SDS011;6154;51.550;12.138;2023-05-07T14:31:35;2.70;;;1.95;;
12181;SDS011;6154;51.550;12.138;2023-05-07T14:34:04;1.65;;;1.55;;
12181;SDS011;6154;51.550;12.138;2023-05-07T14:36:33;3.53;;;1.50;;
12181;SDS011;6154;51.550;12.138;2023-05-07T14:39:01;2.40;;;1.60;;
12181;SDS011;6154;51.550;12.138;2023-05-07T14:41:30;2.30;;;1.52;;
12181;SDS011;6154;51.550;12.138;2023-05-07T14:44:07;3.08;;;2.62;;
12181;SDS011;6154;51.550;12.138;2023-05-07T14:46:35;10.10;;;6.43;;
12181;SDS011;6154;51.550;12.138;2023-05-07T14:49:05;4.03;;;3.03;;
12181;SDS011;6154;51.550;12.138;2023-05-07T14:51:43;1.75;;;1.48;;
12181;SDS011;6154;51.550;12.138;2023-05-07T14:54:12;2.33;;;2.10;;
12181;SDS011;6154;51.550;12.138;2023-05-07T14:56:43;3.97;;;1.40;;
12181;SDS011;6154;51.550;12.138;2023-05-07T14:59:13;1.95;;;1.40;;
12181;SDS011;6154;51.550;12.138;2023-05-07T15:01:42;1.35;;;1.25;;
12181;SDS011;6154;51.550;12.138;2023-05-07T15:04:12;1.33;;;1.23;;
12181;SDS011;6154;51.550;12.138;2023-05-07T15:06:41;3.15;;;1.77;;
12181;SDS011;6154;51.550;12.138;2023-05-07T15:09:09;2.78;;;1.73;;